Time;durP1;ratioP1;P1;durP2;ratioP2;P2;SDS_P1;SDS_P2;PMS_P1;PMS_P2;Temp;Humidity;BMP_temperature;BMP_pressure;BME280_temperature;BME280_humidity;BME280_pressure;Samples;Min_cycle;Max_cycle;Signal;HPM_P1;HPM_P2
2023/12/27 00:03:23;;;;;;;3.00;1.80;;;;;6.50;96817.00;;;;8279839;28;20226;-80
2023/12/27 00:07:28;;;;;;;1.73;1.63;;;;;6.30;96816.00;;;;8280664;28;20236;-77
2023/12/27 00:11:31;;;;;;;2.57;2.00;;;;;6.10;96818.00;;;;8279820;28;20284;-79
2023/12/27 00:15:34;;;;;;;2.57;2.00;;;;;6.00;96822.00;;;;8280964;28;20237;-82
2023/12/27 00:19:38;;;;;;;3.73;1.90;;;;;5.90;96816.00;;;;8282069;28;20936;-76
2023/12/27 00:23:42;;;;;;;3.47;1.93;;;;;5.70;96809.00;;;;8278829;28;20209;-79
2023/12/27 00:27:45;;;;;;;2.10;1.90;;;;;5.60;96803.00;;;;8283529;28;20233;-83
2023/12/27 00:31:49;;;;;;;4.00;2.17;;;;;5.50;96793.00;;;;8281865;28;20703;-81
2023/12/27 00:35:53;;;;;;;2.10;2.00;;;;;5.40;96798.00;;;;8279892;28;20690;-81
2023/12/27 00:39:57;;;;;;;2.20;2.00;;;;;5.30;96809.00;;;;8280443;28;20295;-80
2023/12/27 00:44:01;;;;;;;2.40;2.20;;;;;5.10;96818.00;;;;8281635;28;20198;-80
2023/12/27 00:48:04;;;;;;;3.73;2.30;;;;;5.10;96811.00;;;;8278317;28;20253;-81
2023/12/27 00:52:08;;;;;;;2.90;2.20;;;;;5.00;96806.00;;;;8278759;28;20202;-80
2023/12/27 00:56:13;;;;;;;6.47;2.10;;;;;4.80;96803.00;;;;8278855;28;20252;-80
2023/12/27 01:00:17;;;;;;;2.80;2.27;;;;;4.70;96817.00;;;;8279001;28;20686;-81
2023/12/27 01:04:20;;;;;;;7.70;2.20;;;;;4.60;96818.00;;;;8278059;28;20218;-81
2023/12/27 01:08:23;;;;;;;6.90;2.20;;;;;4.50;96815.00;;;;8280118;28;20221;-78
2023/12/27 01:12:29;;;;;;;6.47;2.20;;;;;4.30;96829.00;;;;8283610;28;21095;-77
2023/12/27 01:16:32;;;;;;;6.37;2.90;;;;;4.30;96835.00;;;;8290600;28;20203;-81
2023/12/27 01:20:35;;;;;;;5.20;2.60;;;;;4.20;96852.00;;;;8289125;28;20293;-80
2023/12/27 01:24:39;;;;;;;6.77;3.10;;;;;4.20;96858.00;;;;8285313;28;20255;-81
2023/12/27 01:28:43;;;;;;;4.53;2.50;;;;;4.20;96868.00;;;;8284155;28;20660;-80
2023/12/27 01:32:46;;;;;;;5.53;2.73;;;;;4.10;96883.00;;;;8289560;28;20268;-81
2023/12/27 01:36:50;;;;;;;6.70;2.93;;;;;4.00;96886.00;;;;8284867;28;20199;-82
2023/12/27 01:40:53;;;;;;;4.00;2.80;;;;;4.00;96880.00;;;;8284076;28;20202;-80
2023/12/27 01:44:58;;;;;;;4.00;2.50;;;;;4.10;96874.00;;;;8283307;28;20197;-79
2023/12/27 01:49:02;;;;;;;4.40;2.67;;;;;4.00;96868.00;;;;8285557;28;20817;-80
2023/12/27 01:53:08;;;;;;;8.57;3.07;;;;;4.00;96871.00;;;;8281769;28;20583;-79
2023/12/27 01:57:11;;;;;;;3.70;3.13;;;;;4.10;96868.00;;;;8284657;28;20243;-80
2023/12/27 02:01:16;;;;;;;3.87;2.87;;;;;4.00;96875.00;;;;8283022;28;20209;-80
2023/12/27 02:05:19;;;;;;;8.57;3.80;;;;;4.00;96864.00;;;;8285481;28;20618;-82
2023/12/27 02:09:23;;;;;;;8.07;3.67;;;;;4.30;96874.00;;;;8285171;28;20292;-81
2023/12/27 02:13:27;;;;;;;4.97;3.50;;;;;4.40;96874.00;;;;8283287;28;20206;-79
2023/12/27 02:17:33;;;;;;;6.93;3.40;;;;;4.40;96859.00;;;;8286358;28;20253;-82
2023/12/27 02:21:36;;;;;;;4.90;3.00;;;;;4.40;96858.00;;;;8280253;28;20197;-80
2023/12/27 02:25:43;;;;;;;7.83;3.33;;;;;4.40;96860.00;;;;8284050;28;20358;-83
2023/12/27 02:29:46;;;;;;;8.13;3.43;;;;;4.30;96866.00;;;;8279150;28;20290;-80
2023/12/27 02:33:50;;;;;;;5.93;3.27;;;;;4.20;96866.00;;;;8284814;28;20638;-77
2023/12/27 02:37:53;;;;;;;4.43;3.00;;;;;4.20;96862.00;;;;8282802;28;20216;-79
2023/12/27 02:41:58;;;;;;;6.20;2.87;;;;;4.20;96865.00;;;;8279091;28;20210;-79
2023/12/27 02:46:02;;;;;;;4.57;3.10;;;;;4.30;96856.00;;;;8285857;28;20233;-79
2023/12/27 02:50:07;;;;;;;7.10;3.10;;;;;4.40;96843.00;;;;8284545;28;20202;-82
2023/12/27 02:54:10;;;;;;;6.77;3.30;;;;;4.40;96833.00;;;;8282089;28;20225;-81
2023/12/27 02:58:15;;;;;;;6.87;3.20;;;;;4.40;96820.00;;;;8283949;28;20240;-78
2023/12/27 03:02:18;;;;;;;7.20;3.27;;;;;4.50;96819.00;;;;8305865;23;20743;-79
2023/12/27 03:06:21;;;;;;;6.17;3.30;;;;;4.60;96817.00;;;;8281545;28;20228;-78
2023/12/27 03:10:24;;;;;;;6.77;2.87;;;;;4.70;96809.00;;;;8286439;28;20194;-81
2023/12/27 03:14:29;;;;;;;10.53;3.50;;;;;4.80;96831.00;;;;8287319;28;20194;-79
2023/12/27 03:18:32;;;;;;;7.77;3.20;;;;;4.90;96831.00;;;;8285405;28;20955;-79
2023/12/27 03:22:36;;;;;;;5.10;3.60;;;;;4.90;96842.00;;;;8285274;28;20687;-78
2023/12/27 03:26:39;;;;;;;6.40;3.43;;;;;4.90;96850.00;;;;8289458;28;20307;-79
2023/12/27 03:30:44;;;;;;;4.73;3.03;;;;;4.90;96838.00;;;;8285146;28;20229;-77
2023/12/27 03:34:47;;;;;;;6.97;3.50;;;;;5.00;96827.00;;;;8281574;28;20202;-78
2023/12/27 03:38:50;;;;;;;5.00;3.60;;;;;5.00;96826.00;;;;8283762;28;20305;-77
2023/12/27 03:42:53;;;;;;;6.77;3.87;;;;;5.00;96832.00;;;;8285673;28;20214;-79
2023/12/27 03:46:58;;;;;;;6.30;3.57;;;;;5.10;96830.00;;;;8287232;28;20229;-77
2023/12/27 03:51:01;;;;;;;8.67;3.10;;;;;5.10;96839.00;;;;8283239;28;20202;-79
2023/12/27 03:55:05;;;;;;;6.83;3.20;;;;;5.10;96843.00;;;;8289054;28;20284;-78
2023/12/27 03:59:08;;;;;;;8.80;3.63;;;;;5.10;96837.00;;;;8283448;28;20913;-78
2023/12/27 04:03:14;;;;;;;7.77;3.67;;;;;5.10;96844.00;;;;8282672;28;20768;-78
2023/12/27 04:07:17;;;;;;;7.27;4.03;;;;;5.20;96839.00;;;;8283726;28;20679;-78
2023/12/27 04:11:20;;;;;;;10.47;4.10;;;;;5.30;96851.00;;;;8281033;28;20206;-78
2023/12/27 04:15:23;;;;;;;7.33;3.40;;;;;5.40;96839.00;;;;8284094;28;20435;-78
2023/12/27 04:19:28;;;;;;;5.87;3.87;;;;;5.40;96852.00;;;;8289791;28;20246;-79
2023/12/27 04:23:31;;;;;;;8.63;3.27;;;;;5.50;96863.00;;;;8284363;28;20225;-79
2023/12/27 04:27:34;;;;;;;5.77;3.30;;;;;5.50;96859.00;;;;8280862;28;20237;-79
2023/12/27 04:31:38;;;;;;;6.80;3.83;;;;;5.60;96853.00;;;;8281937;28;20461;-78
2023/12/27 04:35:43;;;;;;;6.10;3.63;;;;;5.70;96857.00;;;;8283091;28;20613;-81
2023/12/27 04:39:46;;;;;;;9.33;3.83;;;;;5.70;96851.00;;;;8283968;28;20198;-81
2023/12/27 04:43:50;;;;;;;7.23;3.67;;;;;5.80;96848.00;;;;8280957;28;20237;-78
2023/12/27 04:47:53;;;;;;;7.33;3.43;;;;;5.80;96858.00;;;;8284472;28;20591;-81
2023/12/27 04:51:58;;;;;;;6.53;4.03;;;;;5.90;96855.00;;;;8281512;28;20194;-79
2023/12/27 04:56:01;;;;;;;7.30;3.87;;;;;5.90;96844.00;;;;8282783;28;20216;-81
2023/12/27 05:00:07;;;;;;;9.27;4.13;;;;;6.00;96836.00;;;;8284385;28;20201;-79
2023/12/27 05:04:10;;;;;;;9.60;3.83;;;;;6.00;96841.00;;;;8281527;28;20234;-79
2023/12/27 05:08:15;;;;;;;8.93;4.30;;;;;6.10;96846.00;;;;8284092;28;20730;-79
2023/12/27 05:12:18;;;;;;;12.40;3.87;;;;;6.20;96844.00;;;;8277258;28;20229;-78
2023/12/27 05:16:21;;;;;;;8.17;3.97;;;;;6.20;96834.00;;;;8282557;28;20206;-80
2023/12/27 05:20:24;;;;;;;8.98;3.65;;;;;6.30;96844.00;;;;8284444;28;20194;-80
2023/12/27 05:24:29;;;;;;;12.20;4.30;;;;;6.30;96843.00;;;;8284234;28;20241;-81
2023/12/27 05:28:33;;;;;;;8.23;3.53;;;;;6.40;96843.00;;;;8281623;28;20229;-79
2023/12/27 05:32:36;;;;;;;10.77;4.07;;;;;6.40;96836.00;;;;8279929;28;20274;-81
2023/12/27 05:36:39;;;;;;;6.83;3.80;;;;;6.50;96832.00;;;;8278332;28;20309;-80
2023/12/27 05:40:44;;;;;;;5.37;3.57;;;;;6.50;96826.00;;;;8285305;28;20282;-79
2023/12/27 05:44:47;;;;;;;10.53;3.83;;;;;6.50;96827.00;;;;8285538;28;20671;-77
2023/12/27 05:48:50;;;;;;;5.60;3.50;;;;;6.40;96839.00;;;;8287179;28;20234;-78
2023/12/27 05:52:54;;;;;;;7.27;3.20;;;;;6.30;96845.00;;;;8278744;28;20865;-77
2023/12/27 05:56:59;;;;;;;6.60;3.47;;;;;6.30;96852.00;;;;8291714;28;20666;-77
2023/12/27 06:01:02;;;;;;;5.73;3.53;;;;;6.30;96848.00;;;;8285956;28;20260;-78
2023/12/27 06:05:06;;;;;;;7.37;3.37;;;;;6.30;96839.00;;;;8288825;28;20826;-80
2023/12/27 06:09:10;;;;;;;9.00;3.23;;;;;6.20;96840.00;;;;8280090;28;20324;-77
2023/12/27 06:13:15;;;;;;;10.77;3.90;;;;;6.10;96826.00;;;;8283878;28;20202;-77
2023/12/27 06:17:18;;;;;;;7.53;3.50;;;;;6.00;96821.00;;;;8293810;28;20225;-78
2023/12/27 06:21:21;;;;;;;13.17;4.00;;;;;5.90;96812.00;;;;8290613;28;20627;-77
2023/12/27 06:25:24;;;;;;;5.97;3.37;;;;;5.90;96821.00;;;;8286984;28;20260;-81
2023/12/27 06:29:29;;;;;;;5.00;3.70;;;;;5.90;96829.00;;;;8285210;28;20229;-79
2023/12/27 06:33:32;;;;;;;9.70;3.37;;;;;5.80;96828.00;;;;8287910;28;20249;-79
2023/12/27 06:37:36;;;;;;;7.93;3.90;;;;;5.80;96824.00;;;;8283900;28;20216;-79
2023/12/27 06:41:42;;;;;;;8.83;4.40;;;;;5.70;96835.00;;;;8286918;28;20213;-80
2023/12/27 06:45:46;;;;;;;8.83;4.30;;;;;5.70;96835.00;;;;8281117;28;20293;-81
2023/12/27 06:49:50;;;;;;;15.33;7.90;;;;;5.80;96841.00;;;;8290067;28;20238;-77
2023/12/27 06:53:53;;;;;;;14.63;6.63;;;;;5.90;96855.00;;;;8289549;28;20501;-80
2023/12/27 06:57:56;;;;;;;18.73;8.70;;;;;5.90;96844.00;;;;8287639;28;20690;-78
2023/12/27 07:02:01;;;;;;;15.23;8.37;;;;;6.00;96844.00;;;;8281952;28;20229;-78
2023/12/27 07:06:05;;;;;;;12.03;5.90;;;;;6.00;96841.00;;;;8282182;28;20194;-77
2023/12/27 07:10:09;;;;;;;15.83;6.07;;;;;6.20;96850.00;;;;8284046;28;20238;-78
2023/12/27 07:14:15;;;;;;;17.00;8.73;;;;;6.30;96852.00;;;;8287502;28;20209;-78
2023/12/27 07:18:20;;;;;;;11.93;6.10;;;;;6.20;96850.00;;;;8293628;28;20248;-81
2023/12/27 07:22:23;;;;;;;11.00;6.13;;;;;6.30;96861.00;;;;8291408;28;20288;-80
2023/12/27 07:26:27;;;;;;;10.33;5.20;;;;;6.40;96866.00;;;;8287465;28;20280;-80
2023/12/27 07:30:30;;;;;;;11.23;5.33;;;;;6.50;96867.00;;;;8282307;28;21150;-80
2023/12/27 07:34:35;;;;;;;9.03;4.70;;;;;6.60;96862.00;;;;8280752;28;20229;-80
2023/12/27 07:38:38;;;;;;;8.03;5.00;;;;;6.70;96865.00;;;;8281742;28;20297;-81
2023/12/27 07:42:42;;;;;;;11.93;4.70;;;;;6.80;96865.00;;;;8281323;28;20198;-80
2023/12/27 07:46:45;;;;;;;16.63;5.70;;;;;6.90;96862.00;;;;8279932;28;20202;-81
2023/12/27 07:50:50;;;;;;;6.47;4.37;;;;;7.00;96861.00;;;;8279812;28;20236;-78
2023/12/27 07:54:53;;;;;;;10.93;4.90;;;;;7.10;96859.00;;;;8279776;28;20216;-78
2023/12/27 07:58:56;;;;;;;13.30;4.73;;;;;7.10;96868.00;;;;8273589;28;20293;-80
2023/12/27 08:02:59;;;;;;;10.27;4.53;;;;;7.20;96862.00;;;;8282853;28;20260;-77
2023/12/27 08:07:04;;;;;;;10.00;4.83;;;;;7.30;96871.00;;;;8280150;28;20202;-79
2023/12/27 08:11:08;;;;;;;10.37;4.87;;;;;7.40;96884.00;;;;8280636;28;20198;-79
2023/12/27 08:15:11;;;;;;;14.87;6.10;;;;;7.40;96873.00;;;;8283014;28;20209;-78
2023/12/27 08:19:15;;;;;;;14.17;6.40;;;;;7.50;96871.00;;;;8280768;28;20707;-79
2023/12/27 08:23:20;;;;;;;9.93;5.50;;;;;7.60;96876.00;;;;8281193;28;20202;-81
2023/12/27 08:27:23;;;;;;;11.73;6.47;;;;;7.60;96873.00;;;;8276514;28;20282;-81
2023/12/27 08:31:27;;;;;;;14.35;5.10;;;;;7.70;96875.00;;;;8284172;28;20233;-79
2023/12/27 08:35:30;;;;;;;10.90;4.78;;;;;7.70;96880.00;;;;8278593;28;20614;-80
2023/12/27 08:39:35;;;;;;;12.07;5.77;;;;;7.80;96886.00;;;;8277760;28;20209;-80
2023/12/27 08:43:39;;;;;;;13.00;5.32;;;;;8.00;96884.00;;;;8278572;28;20206;-79
2023/12/27 08:47:44;;;;;;;10.18;4.90;;;;;8.10;96889.00;;;;8276868;28;20226;-79
2023/12/27 08:51:47;;;;;;;10.60;5.13;;;;;8.30;96891.00;;;;8286920;28;20233;-79
2023/12/27 08:55:52;;;;;;;13.35;6.05;;;;;8.50;96904.00;;;;8281488;28;20198;-79
2023/12/27 08:59:55;;;;;;;11.77;4.85;;;;;8.70;96907.00;;;;8279969;28;20316;-79
2023/12/27 09:03:58;;;;;;;14.83;5.57;;;;;8.80;96901.00;;;;8279626;28;20268;-79
2023/12/27 09:08:01;;;;;;;10.57;5.57;;;;;8.90;96910.00;;;;8279885;28;20236;-79
2023/12/27 09:12:06;;;;;;;12.00;5.28;;;;;8.90;96908.00;;;;8277720;28;20198;-79
2023/12/27 09:16:10;;;;;;;9.33;4.60;;;;;9.00;96906.00;;;;8277477;28;20202;-78
2023/12/27 09:20:13;;;;;;;7.45;5.03;;;;;9.10;96900.00;;;;8279646;28;20330;-78
2023/12/27 09:24:16;;;;;;;12.63;5.20;;;;;9.10;96895.00;;;;8279021;28;20907;-78
2023/12/27 09:28:22;;;;;;;13.32;5.95;;;;;9.10;96905.00;;;;8284323;28;20240;-78
2023/12/27 09:32:25;;;;;;;10.20;6.32;;;;;9.10;96908.00;;;;8282965;28;20683;-78
2023/12/27 09:36:28;;;;;;;16.85;5.72;;;;;9.20;96900.00;;;;8281842;28;20872;-75
2023/12/27 09:40:31;;;;;;;10.32;5.80;;;;;9.30;96900.00;;;;8284126;28;20198;-76
2023/12/27 09:44:38;;;;;;;8.85;4.97;;;;;9.50;96897.00;;;;8294017;28;20702;-76
2023/12/27 09:48:42;;;;;;;12.52;6.05;;;;;9.70;96890.00;;;;8291172;28;20226;-75
2023/12/27 09:52:48;;;;;;;12.70;5.38;;;;;9.80;96872.00;;;;8284565;28;20200;-76
2023/12/27 09:56:51;;;;;;;12.20;6.65;;;;;9.80;96856.00;;;;8290501;28;20297;-76
2023/12/27 10:00:58;;;;;;;27.73;9.50;;;;;10.00;96865.00;;;;8281495;28;20361;-78
2023/12/27 10:05:11;;;;;;;16.10;7.07;;;;;10.10;96854.00;;;;8277470;28;20770;-77
2023/12/27 10:09:16;;;;;;;11.10;6.60;;;;;10.40;96841.00;;;;8289537;28;20780;-78
2023/12/27 10:13:21;;;;;;;12.88;6.40;;;;;10.60;96826.00;;;;8290324;28;20202;-77
2023/12/27 10:17:25;;;;;;;15.00;6.18;;;;;10.50;96814.00;;;;8286807;28;20372;-78
2023/12/27 10:21:41;;;;;;;22.92;9.15;;;;;10.30;96804.00;;;;8284362;28;20194;-77
2023/12/27 10:25:44;;;;;;;8.27;5.38;;;;;10.20;96820.00;;;;8285215;28;20275;-77
2023/12/27 10:29:48;;;;;;;11.27;4.22;;;;;10.10;96800.00;;;;8285959;28;20271;-78
2023/12/27 10:33:52;;;;;;;10.38;5.15;;;;;10.10;96796.00;;;;8283938;28;20723;-77
2023/12/27 10:37:59;;;;;;;10.43;5.32;;;;;10.20;96776.00;;;;8285755;28;20206;-77
2023/12/27 10:42:02;;;;;;;8.27;4.97;;;;;10.30;96769.00;;;;8293282;28;20288;-77
2023/12/27 10:46:08;;;;;;;11.13;4.30;;;;;10.20;96759.00;;;;8287387;28;20206;-77
2023/12/27 10:50:14;;;;;;;9.68;4.80;;;;;10.20;96761.00;;;;8294836;28;20214;-77
2023/12/27 10:54:21;;;;;;;10.02;4.80;;;;;10.20;96754.00;;;;8288332;28;20201;-76
2023/12/27 10:58:25;;;;;;;9.40;4.13;;;;;10.20;96760.00;;;;8281686;28;20206;-75
2023/12/27 11:02:30;;;;;;;9.32;4.22;;;;;10.20;96749.00;;;;8278953;28;20225;-73
2023/12/27 11:06:37;;;;;;;5.75;4.10;;;;;10.30;96736.00;;;;8286641;28;20560;-74
2023/12/27 11:10:40;;;;;;;10.50;5.80;;;;;10.30;96724.00;;;;8290113;28;20686;-74
2023/12/27 11:14:47;;;;;;;11.48;4.38;;;;;10.20;96740.00;;;;8277781;28;20205;-74
2023/12/27 11:18:53;;;;;;;10.18;4.57;;;;;10.20;96726.00;;;;8287835;28;20289;-74
2023/12/27 11:22:58;;;;;;;9.13;4.20;;;;;10.20;96735.00;;;;8289743;28;20198;-74
2023/12/27 11:27:01;;;;;;;5.30;4.15;;;;;10.30;96739.00;;;;8285422;28;20190;-74
2023/12/27 11:31:05;;;;;;;6.78;3.97;;;;;10.20;96724.00;;;;8284485;28;20328;-74
2023/12/27 11:35:10;;;;;;;10.80;4.35;;;;;10.20;96719.00;;;;8287132;28;20690;-73
2023/12/27 11:39:20;;;;;;;12.15;3.75;;;;;10.20;96716.00;;;;8286595;28;20197;-73
2023/12/27 11:43:26;;;;;;;11.68;3.65;;;;;10.20;96700.00;;;;8286662;28;20213;-75
2023/12/27 11:47:31;;;;;;;5.03;3.60;;;;;10.20;96713.00;;;;8288209;28;20198;-75
2023/12/27 11:51:38;;;;;;;9.80;4.40;;;;;10.20;96702.00;;;;8286395;28;20368;-75
2023/12/27 11:55:46;;;;;;;7.57;3.42;;;;;10.40;96689.00;;;;8282811;28;20206;-76
2023/12/27 11:59:56;;;;;;;6.90;4.22;;;;;10.60;96682.00;;;;8287836;28;20197;-76
2023/12/27 12:04:24;;;;;;;6.72;3.63;;;;;10.80;96669.00;;;;8282145;28;20920;-76
2023/12/27 12:08:36;;;;;;;5.93;3.60;;;;;11.10;96664.00;;;;8290647;28;20216;-76
2023/12/27 12:12:40;;;;;;;9.27;3.92;;;;;11.20;96669.00;;;;8284248;28;20203;-77
2023/12/27 12:16:43;;;;;;;4.55;3.60;;;;;11.20;96656.00;;;;8286197;28;20260;-78
2023/12/27 12:20:47;;;;;;;8.75;3.60;;;;;11.10;96662.00;;;;8284875;28;20260;-78
2023/12/27 12:24:50;;;;;;;16.33;7.95;;;;;11.10;96641.00;;;;8284886;28;20214;-78
2023/12/27 12:28:59;;;;;;;20.58;9.75;;;;;11.10;96635.00;;;;8281038;28;20248;-78
2023/12/27 12:33:02;;;;;;;27.52;11.95;;;;;11.20;96621.00;;;;8291031;28;20285;-79
2023/12/27 12:37:06;;;;;;;27.05;13.25;;;;;11.30;96621.00;;;;8282166;28;20202;-77
2023/12/27 12:41:10;;;;;;;30.05;15.32;;;;;11.30;96604.00;;;;8286655;28;20621;-79
2023/12/27 12:45:16;;;;;;;16.05;8.43;;;;;11.30;96600.00;;;;8285229;28;20206;-78
2023/12/27 12:49:19;;;;;;;9.95;5.80;;;;;11.20;96596.00;;;;8288192;28;20772;-78
2023/12/27 12:53:23;;;;;;;4.95;3.92;;;;;11.20;96604.00;;;;8285340;28;20252;-77
2023/12/27 12:57:27;;;;;;;22.23;9.55;;;;;11.20;96589.00;;;;8284407;28;20894;-77
2023/12/27 13:01:31;;;;;;;24.98;11.75;;;;;11.20;96596.00;;;;8282433;28;20678;-77
2023/12/27 13:05:34;;;;;;;16.65;6.95;;;;;11.30;96579.00;;;;8277274;28;20197;-77
2023/12/27 13:09:54;;;;;;;13.18;6.68;;;;;11.30;96544.00;;;;8285039;28;20222;-76
2023/12/27 13:13:58;;;;;;;9.70;3.70;;;;;11.30;96552.00;;;;8286132;28;20857;-77
2023/12/27 13:18:03;;;;;;;5.32;3.00;;;;;11.30;96544.00;;;;8288142;28;20202;-77
2023/12/27 13:22:08;;;;;;;5.43;2.50;;;;;11.30;96541.00;;;;8285590;28;20289;-79
2023/12/27 13:26:16;;;;;;;6.93;2.97;;;;;11.30;96541.00;;;;8287223;28;20682;-77
2023/12/27 13:30:20;;;;;;;3.88;2.42;;;;;11.20;96534.00;;;;8286070;28;20218;-77
2023/12/27 13:34:24;;;;;;;5.35;2.05;;;;;11.10;96535.00;;;;8289878;28;20192;-79
2023/12/27 13:38:29;;;;;;;2.97;1.75;;;;;11.10;96536.00;;;;8286614;28;20305;-76
2023/12/27 13:42:32;;;;;;;5.80;2.10;;;;;11.00;96529.00;;;;8287466;28;20288;-77
2023/12/27 13:46:36;;;;;;;3.53;2.30;;;;;10.90;96520.00;;;;8281676;28;20205;-79
2023/12/27 13:50:40;;;;;;;4.43;2.13;;;;;10.80;96523.00;;;;8282259;28;20329;-77
2023/12/27 13:54:43;;;;;;;9.30;2.22;;;;;10.80;96516.00;;;;8285048;28;20285;-80
2023/12/27 13:58:47;;;;;;;4.47;2.38;;;;;10.70;96510.00;;;;8283570;28;20198;-76
2023/12/27 14:02:50;;;;;;;7.65;2.75;;;;;10.60;96501.00;;;;8289040;28;20840;-78
2023/12/27 14:06:56;;;;;;;6.03;2.72;;;;;10.50;96495.00;;;;8285504;28;20281;-78
2023/12/27 14:10:59;;;;;;;8.43;3.60;;;;;10.40;96498.00;;;;8284492;28;20236;-80
2023/12/27 14:15:04;;;;;;;15.95;4.60;;;;;10.30;96498.00;;;;8286218;28;20253;-76
2023/12/27 14:19:09;;;;;;;8.77;3.20;;;;;10.30;96490.00;;;;8286730;28;20202;-76
2023/12/27 14:23:13;;;;;;;7.65;3.08;;;;;10.20;96489.00;;;;8287257;28;20231;-77
2023/12/27 14:27:17;;;;;;;4.38;2.70;;;;;10.10;96490.00;;;;8287188;28;20625;-76
2023/12/27 14:31:20;;;;;;;8.35;3.38;;;;;10.00;96502.00;;;;8287600;28;20279;-76
2023/12/27 14:35:23;;;;;;;7.03;3.35;;;;;9.90;96502.00;;;;8289648;28;20656;-79
2023/12/27 14:39:28;;;;;;;6.43;3.17;;;;;9.70;96500.00;;;;8293743;28;20954;-77
2023/12/27 14:43:31;;;;;;;12.10;3.53;;;;;9.60;96499.00;;;;8295788;28;20198;-75
2023/12/27 14:47:35;;;;;;;8.65;4.25;;;;;9.50;96496.00;;;;8292430;28;20202;-76
2023/12/27 14:51:38;;;;;;;7.25;3.15;;;;;9.40;96495.00;;;;8291573;28;20240;-80
2023/12/27 14:55:43;;;;;;;6.93;3.80;;;;;9.30;96493.00;;;;8283321;28;20196;-77
2023/12/27 14:59:46;;;;;;;8.43;4.05;;;;;9.20;96500.00;;;;8280845;28;20627;-81
2023/12/27 15:03:49;;;;;;;6.63;4.40;;;;;9.10;96487.00;;;;8278241;28;20226;-78
2023/12/27 15:07:52;;;;;;;8.98;3.90;;;;;8.90;96480.00;;;;8283087;28;20199;-77
2023/12/27 15:11:57;;;;;;;9.70;4.63;;;;;8.90;96484.00;;;;8255545;28;20230;-81
2023/12/27 15:16:00;;;;;;;4.82;3.60;;;;;8.80;96479.00;;;;8250438;28;20276;-78
2023/12/27 15:20:05;;;;;;;8.02;5.00;;;;;8.70;96484.00;;;;8254351;28;20583;-81
2023/12/27 15:24:09;;;;;;;15.95;6.50;;;;;8.60;96486.00;;;;8253489;28;20894;-82
2023/12/27 15:28:17;;;;;;;45.90;24.85;;;;;8.50;96489.00;;;;8253060;28;20199;-81
2023/12/27 15:32:21;;;;;;;51.63;30.88;;;;;8.40;96487.00;;;;8253741;28;20758;-78
2023/12/27 15:36:24;;;;;;;27.45;16.85;;;;;8.40;96486.00;;;;8253932;28;20203;-76
2023/12/27 15:40:28;;;;;;;14.83;6.97;;;;;8.30;96488.00;;;;8252225;28;20207;-79
2023/12/27 15:44:32;;;;;;;9.77;5.53;;;;;8.30;96480.00;;;;8253865;28;20208;-80
2023/12/27 15:48:35;;;;;;;15.55;7.82;;;;;8.30;96474.00;;;;8251702;28;20237;-80
2023/12/27 15:52:38;;;;;;;52.93;43.17;;;;;8.20;96463.00;;;;8252148;28;20264;-77
2023/12/27 15:56:44;;;;;;;41.03;33.63;;;;;8.20;96474.00;;;;8250139;28;20210;-78
2023/12/27 16:00:51;;;;;;;48.30;30.57;;;;;8.20;96468.00;;;;8250835;28;20210;-78
2023/12/27 16:04:55;;;;;;;12.15;8.00;;;;;8.10;96473.00;;;;8250918;28;20660;-81
2023/12/27 16:08:58;;;;;;;25.35;18.23;;;;;8.10;96468.00;;;;8253824;28;20199;-81
2023/12/27 16:13:02;;;;;;;16.07;8.37;;;;;8.10;96475.00;;;;8252974;28;20683;-82
2023/12/27 16:17:06;;;;;;;30.80;25.73;;;;;8.10;96470.00;;;;8252662;28;20199;-80
2023/12/27 16:21:12;;;;;;;31.67;18.33;;;;;8.00;96451.00;;;;8252579;28;20205;-79
2023/12/27 16:25:15;;;;;;;15.35;7.15;;;;;8.00;96468.00;;;;8251691;28;21738;-77
2023/12/27 16:29:19;;;;;;;16.45;7.07;;;;;8.00;96460.00;;;;8243895;28;20210;-77
2023/12/27 16:33:24;;;;;;;12.27;5.40;;;;;7.90;96460.00;;;;8247736;28;20484;-78
2023/12/27 16:37:27;;;;;;;10.65;5.00;;;;;7.90;96471.00;;;;8252239;28;20195;-79
2023/12/27 16:41:30;;;;;;;9.65;6.18;;;;;7.80;96466.00;;;;8252760;28;20206;-76
2023/12/27 16:45:33;;;;;;;17.00;11.13;;;;;7.70;96462.00;;;;8253421;28;20272;-75
2023/12/27 16:49:38;;;;;;;102.97;62.73;;;;;7.70;96471.00;;;;8253402;28;20203;-75
2023/12/27 16:53:41;;;;;;;61.87;39.23;;;;;7.60;96477.00;;;;8250926;28;20226;-80
2023/12/27 16:57:45;;;;;;;9.30;5.50;;;;;7.60;96472.00;;;;8253959;28;20651;-77
2023/12/27 17:01:48;;;;;;;12.02;5.50;;;;;7.50;96470.00;;;;8251665;28;20233;-75
2023/12/27 17:05:52;;;;;;;12.73;7.27;;;;;7.50;96471.00;;;;8255498;28;20198;-78
2023/12/27 17:09:55;;;;;;;30.17;12.93;;;;;7.50;96468.00;;;;8252054;28;20866;-78
2023/12/27 17:13:58;;;;;;;16.77;8.23;;;;;7.40;96485.00;;;;8254570;28;20325;-77
2023/12/27 17:18:03;;;;;;;12.18;5.80;;;;;7.30;96486.00;;;;8255369;28;20309;-76
2023/12/27 17:22:11;;;;;;;9.93;5.03;;;;;7.30;96480.00;;;;8253674;28;21207;-76
2023/12/27 17:26:15;;;;;;;10.07;5.00;;;;;7.20;96476.00;;;;8254872;28;20210;-77
2023/12/27 17:30:18;;;;;;;8.60;5.00;;;;;7.20;96470.00;;;;8254071;28;20215;-78
2023/12/27 17:34:21;;;;;;;8.73;5.03;;;;;7.10;96461.00;;;;8253725;28;20238;-80
2023/12/27 17:38:26;;;;;;;37.80;23.47;;;;;7.10;96458.00;;;;8257778;28;20714;-77
2023/12/27 17:42:29;;;;;;;12.23;6.77;;;;;7.00;96461.00;;;;8253305;28;20614;-77
2023/12/27 17:46:34;;;;;;;8.80;5.13;;;;;6.90;96461.00;;;;8253011;28;20643;-76
2023/12/27 17:50:41;;;;;;;12.90;4.50;;;;;6.80;96465.00;;;;8255098;28;20206;-78
2023/12/27 17:54:47;;;;;;;10.27;4.43;;;;;6.60;96467.00;;;;8259146;28;20198;-76
2023/12/27 17:58:50;;;;;;;9.80;6.03;;;;;6.50;96470.00;;;;8259067;28;20297;-77
2023/12/27 18:02:54;;;;;;;14.30;7.13;;;;;6.50;96464.00;;;;8257260;28;20727;-77
2023/12/27 18:06:57;;;;;;;24.47;18.50;;;;;6.40;96461.00;;;;8258212;28;20241;-79
2023/12/27 18:11:02;;;;;;;41.87;27.80;;;;;6.30;96463.00;;;;8258542;28;20206;-79
2023/12/27 18:15:07;;;;;;;303.37;185.23;;;;;6.30;96473.00;;;;8259254;28;20205;-75
2023/12/27 18:19:10;;;;;;;24.40;15.63;;;;;6.30;96456.00;;;;8257708;28;20199;-76
2023/12/27 18:23:13;;;;;;;9.93;7.07;;;;;6.30;96460.00;;;;8259491;28;20755;-78
2023/12/27 18:27:18;;;;;;;9.67;6.00;;;;;6.20;96448.00;;;;8256251;28;20237;-79
2023/12/27 18:31:21;;;;;;;9.40;5.80;;;;;6.10;96450.00;;;;8258178;28;20223;-77
2023/12/27 18:35:25;;;;;;;11.13;6.33;;;;;6.10;96453.00;;;;8256993;28;20237;-78
2023/12/27 18:39:28;;;;;;;16.30;6.10;;;;;6.10;96452.00;;;;8259160;28;20210;-76
2023/12/27 18:43:33;;;;;;;11.47;5.90;;;;;6.10;96449.00;;;;8256470;28;20198;-76
2023/12/27 18:47:39;;;;;;;11.77;6.40;;;;;6.10;96447.00;;;;8255838;28;20210;-78
2023/12/27 18:51:43;;;;;;;24.33;10.40;;;;;6.10;96436.00;;;;8254873;28;20373;-76
2023/12/27 18:55:46;;;;;;;19.77;7.80;;;;;6.20;96438.00;;;;8255776;28;20985;-80
2023/12/27 18:59:51;;;;;;;17.97;5.87;;;;;6.10;96436.00;;;;8253170;28;20264;-76
2023/12/27 19:03:54;;;;;;;10.10;5.70;;;;;6.10;96442.00;;;;8255235;28;20230;-75
2023/12/27 19:07:57;;;;;;;7.60;5.60;;;;;6.00;96440.00;;;;8258008;28;20222;-76
2023/12/27 19:12:01;;;;;;;12.87;6.33;;;;;5.90;96419.00;;;;8258716;28;20226;-79
2023/12/27 19:16:07;;;;;;;15.10;6.00;;;;;5.80;96425.00;;;;8260085;28;20210;-75
2023/12/27 19:20:11;;;;;;;14.53;5.93;;;;;5.70;96426.00;;;;8258587;28;20237;-77
2023/12/27 19:24:16;;;;;;;8.70;5.33;;;;;5.60;96423.00;;;;8258127;28;20241;-76
2023/12/27 19:28:19;;;;;;;288.30;152.17;;;;;5.50;96424.00;;;;8259005;28;20207;-79
2023/12/27 19:32:25;;;;;;;47.67;24.30;;;;;5.60;96424.00;;;;8257875;28;20236;-79
2023/12/27 19:36:28;;;;;;;1705.27;747.90;;;;;5.60;96416.00;;;;8257257;28;20265;-78
2023/12/27 19:40:31;;;;;;;164.87;113.27;;;;;5.60;96411.00;;;;8256926;28;20281;-81
2023/12/27 19:44:35;;;;;;;23.97;15.10;;;;;5.60;96414.00;;;;8256792;28;20606;-80
2023/12/27 19:48:44;;;;;;;210.37;122.83;;;;;5.60;96414.00;;;;8255866;28;20212;-82
2023/12/27 19:52:47;;;;;;;695.60;379.03;;;;;5.60;96422.00;;;;8256594;28;20253;-81
2023/12/27 19:56:51;;;;;;;208.53;124.03;;;;;5.50;96416.00;;;;8255196;28;20215;-83
2023/12/27 20:00:54;;;;;;;31.63;20.27;;;;;5.50;96410.00;;;;8254437;28;20316;-81
2023/12/27 20:05:03;;;;;;;50.60;31.40;;;;;5.50;96418.00;;;;8254929;28;20199;-80
2023/12/27 20:09:08;;;;;;;20.20;12.53;;;;;5.40;96413.00;;;;8252763;28;20218;-84
2023/12/27 20:13:11;;;;;;;20.20;13.33;;;;;5.40;96423.00;;;;8255135;28;20236;-81
2023/12/27 20:17:16;;;;;;;26.00;14.23;;;;;5.40;96409.00;;;;8254015;28;20202;-78
2023/12/27 20:21:20;;;;;;;17.87;7.87;;;;;5.30;96410.00;;;;8252547;28;20209;-80
2023/12/27 20:25:23;;;;;;;17.23;7.57;;;;;5.20;96407.00;;;;8252818;28;20202;-81